createdAt,value
2019-05-03T00:00:15.869Z,100.0
2019-05-03T00:01:17.275Z,100.0
2019-05-03T00:02:18.685Z,100.0
2019-05-03T00:03:20.089Z,100.0
2019-05-03T00:04:22.384Z,100.0
2019-05-03T00:05:22.859Z,100.0
2019-05-03T00:06:24.252Z,100.0
2019-05-03T00:07:25.651Z,100.0
2019-05-03T00:08:27.053Z,100.0
2019-05-03T00:09:28.473Z,100.0
2019-05-03T00:10:31.659Z,100.0
2019-05-03T00:11:32.613Z,100.0
2019-05-03T00:12:32.735Z,100.0
2019-05-03T00:13:34.053Z,100.0
2019-05-03T00:14:35.463Z,100.0
2019-05-03T00:15:36.875Z,100.0
2019-05-03T00:16:38.262Z,100.0
2019-05-03T00:17:39.661Z,100.0
2019-05-03T00:18:42.188Z,100.0
2019-05-03T00:19:42.413Z,100.0
2019-05-03T00:20:43.811Z,100.0
2019-05-03T00:21:45.199Z,100.0
2019-05-03T00:22:46.599Z,100.0
2019-05-03T00:23:48.033Z,100.0
2019-05-03T00:25:02.234Z,100.0
2019-05-03T00:25:52.243Z,100.0
2019-05-03T00:26:52.262Z,100.0
2019-05-03T00:27:53.645Z,100.0
2019-05-03T00:28:55.046Z,100.0
2019-05-03T00:29:56.465Z,100.0
2019-05-03T00:30:57.865Z,100.0
2019-05-03T00:31:59.259Z,100.0
2019-05-03T00:33:02.716Z,100.0
2019-05-03T00:34:02.282Z,100.0
2019-05-03T00:35:03.397Z,100.0
2019-05-03T00:36:04.800Z,100.0
2019-05-03T00:37:06.194Z,100.0
2019-05-03T00:38:07.585Z,100.0
2019-05-03T00:39:08.975Z,100.0
2019-05-03T00:40:12.157Z,100.0
2019-05-03T00:41:12.176Z,100.0
2019-05-03T00:42:13.108Z,100.0
2019-05-03T00:43:14.512Z,100.0
2019-05-03T00:44:15.910Z,100.0
2019-05-03T00:45:17.305Z,100.0
2019-05-03T00:46:18.702Z,100.0
2019-05-03T00:47:22.041Z,100.0
2019-05-03T00:48:21.979Z,100.0
2019-05-03T00:49:22.826Z,100.0
2019-05-03T00:50:24.237Z,100.0
2019-05-03T00:51:25.632Z,100.0
2019-05-03T00:52:27.025Z,100.0
2019-05-03T00:53:28.432Z,100.0
2019-05-03T00:54:31.572Z,100.0
2019-05-03T00:55:32.615Z,100.0
2019-05-03T00:56:32.552Z,100.0
2019-05-03T00:57:33.964Z,100.0
2019-05-03T00:58:35.359Z,100.0
2019-05-03T00:59:36.754Z,100.0
2019-05-03T01:00:38.146Z,100.0
2019-05-03T01:01:39.565Z,100.0
2019-05-03T01:02:42.292Z,100.0
2019-05-03T01:03:42.346Z,100.0
2019-05-03T01:04:43.747Z,100.0
2019-05-03T01:05:45.145Z,100.0
2019-05-03T01:06:46.544Z,100.0
2019-05-03T01:07:47.937Z,100.0
2019-05-03T01:08:49.328Z,100.0
2019-05-03T01:09:51.788Z,100.0
2019-05-03T01:10:52.107Z,100.0
2019-05-03T01:11:53.507Z,100.0
2019-05-03T01:12:54.902Z,100.0
2019-05-03T01:13:56.296Z,100.0
2019-05-03T01:14:57.692Z,100.0
2019-05-03T01:15:59.230Z,100.0
2019-05-03T01:17:02.502Z,100.0
2019-05-03T01:18:02.088Z,100.0
2019-05-03T01:19:03.487Z,100.0
2019-05-03T01:20:04.912Z,100.0
2019-05-03T01:21:06.299Z,100.0
2019-05-03T01:22:07.702Z,100.0
2019-05-03T01:23:09.115Z,100.0
2019-05-03T01:24:12.177Z,100.0
2019-05-03T01:25:12.041Z,100.0
2019-05-03T01:26:13.293Z,100.0
2019-05-03T01:27:14.712Z,100.0
2019-05-03T01:28:16.114Z,100.0
2019-05-03T01:29:17.504Z,100.0
2019-05-03T01:30:18.893Z,100.0
2019-05-03T01:31:22.522Z,100.0
2019-05-03T01:32:22.253Z,100.0
2019-05-03T01:33:23.074Z,100.0
2019-05-03T01:34:24.473Z,100.0
2019-05-03T01:35:25.863Z,100.0
2019-05-03T01:36:27.250Z,100.0
2019-05-03T01:37:28.647Z,100.0
2019-05-03T01:38:31.730Z,100.0
2019-05-03T01:39:31.603Z,100.0
2019-05-03T01:40:32.852Z,100.0
2019-05-03T01:41:34.258Z,100.0
2019-05-03T01:42:35.645Z,100.0
2019-05-03T01:43:37.045Z,100.0
2019-05-03T01:44:38.458Z,100.0
2019-05-03T01:45:39.847Z,100.0
2019-05-03T01:46:42.194Z,100.0
2019-05-03T01:47:42.615Z,100.0
2019-05-03T01:48:44.009Z,100.0
2019-05-03T01:49:45.410Z,100.0
2019-05-03T01:50:46.802Z,100.0
2019-05-03T01:51:48.196Z,100.0
2019-05-03T01:52:49.591Z,100.0
2019-05-03T01:53:52.367Z,100.0
2019-05-03T01:54:52.380Z,100.0
2019-05-03T01:55:53.792Z,100.0
2019-05-03T01:56:58.851Z,100.0
2019-05-03T01:57:56.616Z,100.0
2019-05-03T01:58:58.014Z,100.0
2019-05-03T01:59:59.405Z,100.0
2019-05-03T02:01:02.686Z,100.0
2019-05-03T02:02:02.255Z,100.0
2019-05-03T02:03:03.519Z,100.0
2019-05-03T02:04:04.921Z,100.0
2019-05-03T02:05:06.311Z,100.0
2019-05-03T02:06:07.738Z,100.0
2019-05-03T02:07:09.169Z,100.0
2019-05-03T02:08:12.466Z,100.0
2019-05-03T02:09:12.207Z,100.0
2019-05-03T02:10:13.296Z,100.0
2019-05-03T02:11:14.705Z,100.0
2019-05-03T02:12:16.096Z,100.0
2019-05-03T02:13:17.488Z,100.0
2019-05-03T02:14:18.876Z,100.0
2019-05-03T02:15:22.004Z,100.0
2019-05-03T02:16:21.859Z,100.0
2019-05-03T02:17:23.041Z,100.0
2019-05-03T02:18:24.440Z,100.0
2019-05-03T02:19:25.854Z,100.0
2019-05-03T02:20:27.240Z,100.0
2019-05-03T02:21:28.644Z,100.0
2019-05-03T02:22:31.908Z,100.0
2019-05-03T02:23:31.973Z,100.0
2019-05-03T02:24:32.902Z,100.0
2019-05-03T02:25:34.175Z,100.0
2019-05-03T02:26:35.577Z,100.0
2019-05-03T02:27:36.968Z,100.0
2019-05-03T02:28:38.362Z,100.0
2019-05-03T02:29:41.737Z,100.0
2019-05-03T02:30:43.692Z,100.0
2019-05-03T02:31:43.616Z,100.0
2019-05-03T02:32:44.301Z,100.0
2019-05-03T02:33:45.201Z,100.0
2019-05-03T02:34:46.640Z,100.0
2019-05-03T02:35:48.082Z,100.0
2019-05-03T02:36:49.537Z,100.0
2019-05-03T02:37:52.991Z,100.0
2019-05-03T02:38:53.496Z,100.0
2019-05-03T02:39:53.633Z,100.0
2019-05-03T02:40:55.044Z,100.0
2019-05-03T02:42:02.864Z,100.0
2019-05-03T02:42:57.816Z,100.0
2019-05-03T02:43:59.208Z,100.0
2019-05-03T02:45:00.605Z,100.0
2019-05-03T02:46:02.001Z,100.0
2019-05-03T02:47:05.340Z,100.0
2019-05-03T02:48:06.038Z,100.0
2019-05-03T02:49:06.541Z,100.0
2019-05-03T02:50:07.498Z,100.0
2019-05-03T02:51:08.882Z,100.0
2019-05-03T02:52:10.302Z,100.0
2019-05-03T02:53:11.699Z,100.0
2019-05-03T02:54:15.501Z,100.0
2019-05-03T02:55:16.069Z,100.0
2019-05-03T02:56:22.185Z,100.0
2019-05-03T02:57:17.214Z,100.0
2019-05-03T02:58:18.779Z,100.0
2019-05-03T02:59:20.208Z,100.0
2019-05-03T03:00:21.624Z,100.0
2019-05-03T03:01:23.029Z,100.0
2019-05-03T03:02:26.377Z,100.0
2019-05-03T03:03:25.815Z,100.0
2019-05-03T03:04:27.210Z,100.0
2019-05-03T03:05:28.600Z,100.0
2019-05-03T03:06:29.996Z,100.0
2019-05-03T03:07:31.408Z,100.0
2019-05-03T03:08:33.583Z,100.0
2019-05-03T03:09:35.973Z,100.0
2019-05-03T03:10:35.632Z,100.0
2019-05-03T03:11:36.899Z,100.0
2019-05-03T03:12:38.292Z,100.0
2019-05-03T03:13:39.691Z,100.0
2019-05-03T03:14:41.105Z,100.0
2019-05-03T03:15:42.482Z,100.0
2019-05-03T03:16:45.506Z,100.0
2019-05-03T03:17:45.707Z,100.0
2019-05-03T03:18:46.601Z,100.0
2019-05-03T03:19:47.989Z,100.0
2019-05-03T03:20:49.384Z,100.0
2019-05-03T03:21:50.781Z,100.0
2019-05-03T03:22:52.165Z,100.0
2019-05-03T03:23:55.921Z,100.0
2019-05-03T03:24:55.919Z,100.0
2019-05-03T03:25:56.268Z,100.0
2019-05-03T03:26:57.662Z,100.0
2019-05-03T03:27:59.054Z,100.0
2019-05-03T03:29:00.481Z,100.0
2019-05-03T03:30:01.870Z,100.0
2019-05-03T03:31:07.960Z,100.0
2019-05-03T03:32:08.799Z,100.0
2019-05-03T03:33:08.627Z,100.0
2019-05-03T03:34:08.466Z,100.0
2019-05-03T03:35:11.749Z,100.0
2019-05-03T03:36:37.578Z,100.0
2019-05-03T03:37:11.487Z,100.0
2019-05-03T03:38:15.341Z,100.0
2019-05-03T03:39:15.149Z,100.0
2019-05-03T03:40:15.996Z,100.0
2019-05-03T03:41:17.009Z,100.0
2019-05-03T03:42:18.380Z,100.0
2019-05-03T03:43:19.767Z,100.0
2019-05-03T03:44:21.156Z,100.0
2019-05-03T03:45:25.164Z,100.0
2019-05-03T03:46:25.196Z,100.0
2019-05-03T03:47:27.335Z,100.0
2019-05-03T03:48:26.750Z,100.0
2019-05-03T03:49:27.991Z,100.0
2019-05-03T03:50:29.480Z,100.0
2019-05-03T03:51:30.915Z,100.0
2019-05-03T03:52:32.344Z,100.0
2019-05-03T03:53:35.623Z,100.0
2019-05-03T03:54:35.530Z,100.0
2019-05-03T03:55:36.493Z,100.0
2019-05-03T03:56:54.728Z,100.0
2019-05-03T03:57:39.253Z,100.0
2019-05-03T03:58:40.642Z,100.0
2019-05-03T03:59:42.036Z,100.0
2019-05-03T04:00:46.179Z,100.0
2019-05-03T04:01:45.711Z,100.0
2019-05-03T04:02:46.168Z,100.0
2019-05-03T04:03:47.561Z,100.0
2019-05-03T04:04:48.969Z,100.0
2019-05-03T04:05:50.360Z,100.0
2019-05-03T04:06:51.756Z,100.0
2019-05-03T04:07:55.892Z,100.0
2019-05-03T04:08:56.079Z,100.0
2019-05-03T04:09:56.244Z,100.0
2019-05-03T04:10:57.219Z,100.0
2019-05-03T04:11:58.625Z,100.0
2019-05-03T04:13:00.027Z,100.0
2019-05-03T04:14:01.412Z,100.0
2019-05-03T04:15:05.471Z,100.0
2019-05-03T04:16:05.539Z,100.0
2019-05-03T04:17:05.881Z,100.0
2019-05-03T04:18:06.898Z,100.0
2019-05-03T04:19:08.303Z,100.0
2019-05-03T04:20:09.700Z,100.0
2019-05-03T04:21:11.090Z,100.0
2019-05-03T04:22:12.483Z,100.0
2019-05-03T04:23:16.164Z,100.0
2019-05-03T04:24:16.302Z,100.0
2019-05-03T04:25:16.621Z,100.0
2019-05-03T04:26:18.025Z,100.0
2019-05-03T04:27:23.530Z,100.0
2019-05-03T04:28:20.787Z,100.0
2019-05-03T04:29:22.179Z,100.0
2019-05-03T04:30:25.451Z,100.0
2019-05-03T04:31:26.203Z,100.0
2019-05-03T04:32:29.030Z,100.0
2019-05-03T04:33:27.668Z,100.0
2019-05-03T04:34:29.090Z,100.0
2019-05-03T04:35:30.538Z,100.0
2019-05-03T04:36:31.947Z,100.0
2019-05-03T04:37:35.711Z,100.0
2019-05-03T04:38:35.475Z,100.0
2019-05-03T04:39:36.299Z,100.0
2019-05-03T04:40:37.670Z,100.0
2019-05-03T04:41:39.220Z,100.0
2019-05-03T04:42:40.622Z,100.0
2019-05-03T04:43:42.053Z,100.0
2019-05-03T04:44:45.509Z,100.0
2019-05-03T04:45:45.611Z,100.0
2019-05-03T04:46:46.523Z,100.0
2019-05-03T04:47:47.525Z,100.0
2019-05-03T04:48:48.933Z,100.0
2019-05-03T04:49:50.352Z,100.0
2019-05-03T04:50:51.740Z,100.0
2019-05-03T04:51:55.922Z,100.0
2019-05-03T04:52:56.760Z,100.0
2019-05-03T04:53:56.039Z,100.0
2019-05-03T04:54:57.529Z,100.0
2019-05-03T04:55:59.017Z,100.0
2019-05-03T04:57:00.435Z,100.0
2019-05-03T04:58:01.822Z,100.0
2019-05-03T04:59:05.068Z,100.0
2019-05-03T05:00:06.037Z,100.0
2019-05-03T05:01:06.220Z,100.0
2019-05-03T05:02:07.426Z,100.0
2019-05-03T05:03:08.814Z,100.0
2019-05-03T05:04:10.218Z,100.0
2019-05-03T05:05:11.660Z,100.0
2019-05-03T05:06:15.246Z,100.0
2019-05-03T05:07:15.514Z,100.0
2019-05-03T05:08:16.263Z,100.0
2019-05-03T05:09:17.260Z,100.0
2019-05-03T05:10:18.675Z,100.0
2019-05-03T05:11:20.078Z,100.0
2019-05-03T05:12:21.479Z,100.0
2019-05-03T05:13:24.823Z,100.0
2019-05-03T05:14:25.814Z,100.0
2019-05-03T05:15:26.487Z,100.0
2019-05-03T05:16:27.098Z,100.0
2019-05-03T05:17:28.554Z,100.0
2019-05-03T05:18:29.946Z,100.0
2019-05-03T05:19:31.364Z,100.0
2019-05-03T05:20:34.953Z,100.0
2019-05-03T05:21:35.503Z,100.0
2019-05-03T05:22:35.630Z,100.0
2019-05-03T05:23:37.054Z,100.0
2019-05-03T05:24:38.529Z,100.0
2019-05-03T05:25:39.947Z,100.0
2019-05-03T05:26:41.377Z,100.0
2019-05-03T05:27:48.706Z,100.0
2019-05-03T05:28:44.767Z,100.0
2019-05-03T05:29:46.131Z,100.0
2019-05-03T05:30:48.549Z,100.0
2019-05-03T05:45:11.470Z,100.0
2019-05-03T05:48:39.441Z,100.0
2019-05-03T05:54:45.469Z,100.0
2019-05-03T05:55:46.032Z,100.0
2019-05-03T05:56:47.706Z,100.0
2019-05-03T05:58:01.285Z,100.0
2019-05-03T06:00:50.692Z,100.0
2019-05-03T06:01:52.563Z,100.0
2019-05-03T06:02:55.159Z,100.0
2019-05-03T06:03:56.295Z,100.0
2019-05-03T06:04:58.211Z,100.0
2019-05-03T06:05:59.628Z,100.0
2019-05-03T06:07:01.057Z,100.0
2019-05-03T06:08:02.496Z,100.0
2019-05-03T06:09:05.090Z,100.0
2019-05-03T06:10:05.405Z,100.0
2019-05-03T06:11:06.799Z,100.0
2019-05-03T06:12:08.414Z,100.0
2019-05-03T06:13:09.883Z,100.0
2019-05-03T06:14:11.363Z,100.0
2019-05-03T06:15:14.924Z,100.0
2019-05-03T06:16:15.522Z,100.0
2019-05-03T06:17:15.741Z,100.0
2019-05-03T06:18:17.118Z,100.0
2019-05-03T06:19:18.543Z,100.0
2019-05-03T06:20:20.038Z,100.0
2019-05-03T06:21:21.490Z,100.0
2019-05-03T06:22:23.038Z,100.0
2019-05-03T06:23:24.772Z,100.0
2019-05-03T06:24:25.926Z,100.0
2019-05-03T06:25:27.397Z,100.0
2019-05-03T06:26:28.903Z,100.0
2019-05-03T06:27:30.418Z,100.0
2019-05-03T06:28:31.856Z,100.0
2019-05-03T06:29:35.067Z,100.0
2019-05-03T06:30:35.112Z,100.0
2019-05-03T06:31:36.177Z,100.0
2019-05-03T06:32:37.721Z,100.0
2019-05-03T06:33:39.202Z,100.0
2019-05-03T06:34:40.721Z,100.0
2019-05-03T06:35:42.162Z,100.0
2019-05-03T06:36:44.276Z,100.0
2019-05-03T06:37:45.853Z,100.0
2019-05-03T06:38:46.615Z,100.0
2019-05-03T06:40:27.781Z,100.0
2019-05-03T06:41:29.350Z,100.0
2019-05-03T06:42:30.983Z,100.0
2019-05-03T06:43:34.654Z,100.0
2019-05-03T06:44:34.948Z,100.0
2019-05-03T06:45:35.930Z,100.0
2019-05-03T06:46:37.541Z,100.0
2019-05-03T06:47:40.392Z,100.0
2019-05-03T06:48:40.686Z,100.0
2019-05-03T06:49:44.951Z,100.0
2019-05-03T06:50:45.278Z,100.0
2019-05-03T06:51:49.319Z,100.0
2019-05-03T06:52:46.899Z,100.0
2019-05-03T06:53:50.612Z,100.0
2019-05-03T06:54:49.911Z,100.0
2019-05-03T06:55:51.494Z,100.0
2019-05-03T06:56:52.970Z,100.0
2019-05-03T06:57:54.706Z,100.0
2019-05-03T06:58:56.082Z,100.0
2019-05-03T06:59:58.215Z,100.0
2019-05-03T07:00:59.689Z,100.0
2019-05-03T07:02:01.284Z,100.0
2019-05-03T07:03:04.806Z,100.0
2019-05-03T07:04:05.140Z,100.0
2019-05-03T07:05:05.942Z,100.0
2019-05-03T07:06:07.605Z,100.0
2019-05-03T07:07:09.173Z,100.0
2019-05-03T07:08:10.582Z,100.0
2019-05-03T07:09:12.047Z,100.0
2019-05-03T07:10:14.903Z,100.0
2019-05-03T07:11:15.431Z,100.0
2019-05-03T07:12:16.597Z,100.0
2019-05-03T07:13:18.126Z,100.0
2019-05-03T07:14:19.656Z,100.0
2019-05-03T07:15:21.467Z,100.0
2019-05-03T07:16:25.130Z,100.0
2019-05-03T07:17:24.811Z,100.0
2019-05-03T07:18:25.817Z,100.0
2019-05-03T07:19:27.265Z,100.0
2019-05-03T07:20:28.860Z,100.0
2019-05-03T07:21:30.625Z,100.0
2019-05-03T07:22:32.212Z,100.0
2019-05-03T07:23:34.995Z,100.0
2019-05-03T07:24:40.411Z,99.2
2019-05-03T07:25:36.668Z,99.2
2019-05-03T07:26:38.253Z,100.0
2019-05-03T07:27:39.768Z,100.0
2019-05-03T07:28:47.029Z,100.0
2019-05-03T07:29:44.531Z,100.0
2019-05-03T07:30:45.450Z,99.7
2019-05-03T07:31:45.714Z,99.5
2019-05-03T07:32:47.279Z,98.0
2019-05-03T07:33:48.807Z,97.2
2019-05-03T07:34:51.250Z,95.6
2019-05-03T07:35:54.668Z,95.9
2019-05-03T07:36:55.508Z,96.4
2019-05-03T07:37:55.719Z,96.4
2019-05-03T07:38:57.167Z,96.9
2019-05-03T07:39:58.725Z,97.5
2019-05-03T07:41:00.157Z,97.2
2019-05-03T07:42:01.726Z,98.3
2019-05-03T07:43:04.539Z,97.8
2019-05-03T07:44:05.353Z,96.9
2019-05-03T07:45:06.202Z,95.0
2019-05-03T07:46:07.799Z,93.7
2019-05-03T07:47:09.514Z,93.8
2019-05-03T07:48:10.941Z,93.1
2019-05-03T07:49:12.526Z,93.3
2019-05-03T07:50:15.299Z,91.2
2019-05-03T07:51:15.480Z,90.4
2019-05-03T07:52:17.009Z,90.7
2019-05-03T07:53:18.505Z,91.0
2019-05-03T07:54:20.185Z,90.7
2019-05-03T07:55:21.706Z,90.8
2019-05-03T07:56:23.108Z,90.0
2019-05-03T07:57:25.425Z,90.9
2019-05-03T07:58:26.172Z,91.5
2019-05-03T07:59:27.747Z,91.3
2019-05-03T08:00:29.230Z,91.6
2019-05-03T08:01:30.768Z,90.4
2019-05-03T08:02:32.328Z,90.3
2019-05-03T08:03:34.854Z,91.3
2019-05-03T08:04:36.098Z,92.0
2019-05-03T08:05:37.635Z,92.2
2019-05-03T08:06:39.157Z,91.5
2019-05-03T08:07:40.652Z,91.5
2019-05-03T08:08:42.211Z,91.0
2019-05-03T08:09:45.177Z,90.1
2019-05-03T08:10:45.268Z,90.4
2019-05-03T08:11:46.684Z,89.6
2019-05-03T08:12:48.179Z,88.8
2019-05-03T08:13:49.748Z,88.7
2019-05-03T08:14:51.303Z,89.0
2019-05-03T08:15:52.795Z,89.2
2019-05-03T08:16:54.787Z,88.6
2019-05-03T08:17:55.761Z,88.4
2019-05-03T08:18:57.273Z,87.6
2019-05-03T08:19:58.734Z,87.5
2019-05-03T08:21:00.243Z,87.8
2019-05-03T08:22:01.753Z,88.2
2019-05-03T08:23:05.095Z,89.2
2019-05-03T08:24:04.800Z,88.9
2019-05-03T08:25:06.267Z,88.7
2019-05-03T08:26:07.800Z,88.5
2019-05-03T08:27:09.342Z,87.7
2019-05-03T08:28:10.867Z,87.1
2019-05-03T08:29:15.918Z,85.6
2019-05-03T08:30:14.749Z,86.7
2019-05-03T08:31:15.384Z,86.1
2019-05-03T08:32:16.886Z,85.3
2019-05-03T08:33:18.450Z,85.6
2019-05-03T08:34:19.883Z,85.3
2019-05-03T08:35:21.302Z,84.6
2019-05-03T08:36:24.633Z,85.4
2019-05-03T08:37:24.473Z,85.5
2019-05-03T08:38:25.715Z,86.3
2019-05-03T08:39:27.123Z,85.2
2019-05-03T08:40:28.608Z,85.1
2019-05-03T08:41:30.031Z,86.0
2019-05-03T08:42:31.655Z,86.3
2019-05-03T08:43:33.147Z,87.2
2019-05-03T08:44:35.332Z,88.1
2019-05-03T08:45:36.233Z,88.1
2019-05-03T08:46:37.783Z,87.6
2019-05-03T08:47:39.286Z,88.3
2019-05-03T08:48:40.800Z,88.4
2019-05-03T08:49:42.317Z,87.7
2019-05-03T08:50:45.131Z,88.2
2019-05-03T08:51:45.273Z,88.2
2019-05-03T08:52:46.875Z,89.5
2019-05-03T08:53:48.425Z,89.8
2019-05-03T08:54:49.987Z,90.4
2019-05-03T08:55:51.491Z,88.9
2019-05-03T08:56:53.017Z,88.6
2019-05-03T08:57:55.170Z,87.7
2019-05-03T08:58:55.920Z,87.0
2019-05-03T08:59:57.391Z,87.1
2019-05-03T09:00:58.895Z,88.3
2019-05-03T09:02:03.503Z,88.8
2019-05-03T09:03:01.858Z,88.7
2019-05-03T09:04:04.829Z,87.3
2019-05-03T09:05:05.245Z,87.6
2019-05-03T09:06:06.594Z,86.8
2019-05-03T09:07:08.000Z,86.8
2019-05-03T09:08:09.594Z,85.2
2019-05-03T09:09:11.132Z,83.9
2019-05-03T09:10:16.571Z,82.2
2019-05-03T09:11:15.490Z,82.8
2019-05-03T09:12:15.638Z,84.0
2019-05-03T09:13:17.130Z,84.2
2019-05-03T09:14:18.625Z,84.8
2019-05-03T09:15:21.690Z,85.4
2019-05-03T09:16:21.644Z,84.3
2019-05-03T09:17:24.532Z,84.2
2019-05-03T09:18:25.863Z,83.5
2019-05-03T09:19:25.986Z,82.7
2019-05-03T09:20:27.701Z,82.7
2019-05-03T09:21:29.252Z,82.8
2019-05-03T09:22:30.837Z,82.9
2019-05-03T09:23:32.460Z,83.6
2019-05-03T09:24:35.134Z,83.9
2019-05-03T09:25:35.525Z,82.5
2019-05-03T09:26:36.772Z,81.9
2019-05-03T09:27:38.310Z,82.0
2019-05-03T09:28:39.739Z,79.8
2019-05-03T09:29:43.527Z,78.9
2019-05-03T09:30:44.597Z,79.6
2019-05-03T09:31:44.679Z,80.5
2019-05-03T09:32:45.560Z,79.7
2019-05-03T09:33:47.058Z,80.5
2019-05-03T09:34:48.503Z,81.2
2019-05-03T09:35:49.981Z,80.5
2019-05-03T09:36:51.486Z,80.5
2019-05-03T09:37:53.032Z,80.5
2019-05-03T09:38:54.877Z,79.8
2019-05-03T09:39:56.114Z,81.0
2019-05-03T09:40:57.588Z,80.0
2019-05-03T09:41:59.110Z,79.5
2019-05-03T09:43:00.616Z,79.4
2019-05-03T09:44:02.185Z,79.5
2019-05-03T09:45:04.917Z,78.7
2019-05-03T09:46:05.266Z,78.4
2019-05-03T09:47:06.736Z,78.3
2019-05-03T09:48:08.249Z,79.1
2019-05-03T09:49:13.322Z,78.7
2019-05-03T09:50:11.173Z,78.3
2019-05-03T09:51:14.552Z,76.7
2019-05-03T09:52:15.999Z,77.2
2019-05-03T09:53:15.737Z,75.4
2019-05-03T09:54:17.158Z,75.5
2019-05-03T09:55:18.642Z,74.2
2019-05-03T09:56:20.136Z,74.3
2019-05-03T09:57:21.686Z,73.9
2019-05-03T09:58:23.067Z,73.8
2019-05-03T09:59:25.498Z,75.2
2019-05-03T10:00:26.180Z,76.6
2019-05-03T10:01:27.676Z,76.8
2019-05-03T10:02:29.146Z,76.1
2019-05-03T10:03:30.567Z,74.9
2019-05-03T10:04:32.089Z,75.0
2019-05-03T10:05:35.062Z,75.5
2019-05-03T10:06:35.953Z,74.0
2019-05-03T10:07:36.515Z,72.3
2019-05-03T10:08:37.938Z,72.6
2019-05-03T10:09:39.438Z,71.3
2019-05-03T10:10:40.827Z,70.5
2019-05-03T10:11:45.537Z,70.8
2019-05-03T10:12:43.698Z,69.9
2019-05-03T10:13:48.228Z,68.7
2019-05-03T10:14:46.709Z,69.1
2019-05-03T10:15:48.331Z,70.0
2019-05-03T10:16:49.680Z,71.1
2019-05-03T10:17:51.183Z,69.8
2019-05-03T10:18:52.694Z,68.7
2019-05-03T10:19:54.727Z,69.5
2019-05-03T10:20:56.112Z,70.1
2019-05-03T10:21:57.192Z,70.4
2019-05-03T10:22:58.702Z,71.0
2019-05-03T10:24:00.206Z,71.2
2019-05-03T10:25:01.680Z,71.4
2019-05-03T10:26:04.993Z,71.7
2019-05-03T10:27:05.574Z,71.8
2019-05-03T10:28:05.911Z,72.5
2019-05-03T10:29:07.415Z,71.5
2019-05-03T10:30:12.508Z,68.4
2019-05-03T10:31:10.283Z,68.7
2019-05-03T10:32:11.969Z,69.7
2019-05-03T10:33:15.318Z,68.6
2019-05-03T10:34:15.531Z,66.4
2019-05-03T10:35:16.243Z,66.4
2019-05-03T10:36:17.723Z,68.1
2019-05-03T10:37:19.193Z,68.3
2019-05-03T10:38:20.682Z,66.2
2019-05-03T10:39:22.221Z,65.6
2019-05-03T10:40:24.362Z,66.4
2019-05-03T10:41:25.286Z,64.4
2019-05-03T10:42:26.680Z,64.4
2019-05-03T10:43:28.123Z,66.4
2019-05-03T10:44:29.536Z,67.5
2019-05-03T10:45:31.049Z,66.0
2019-05-03T10:46:34.348Z,67.5
2019-05-03T10:47:34.946Z,67.4
2019-05-03T10:48:35.732Z,68.7
2019-05-03T10:49:36.909Z,67.5
2019-05-03T10:50:38.311Z,65.8
2019-05-03T10:51:39.836Z,66.2
2019-05-03T10:52:41.432Z,66.0
2019-05-03T10:53:42.992Z,67.0
2019-05-03T10:54:45.863Z,67.4
2019-05-03T10:55:45.813Z,67.1
2019-05-03T10:56:47.368Z,67.4
2019-05-03T10:57:48.832Z,67.4
2019-05-03T10:58:50.340Z,66.4
2019-05-03T10:59:51.811Z,66.0
2019-05-03T11:00:53.636Z,65.6
2019-05-03T11:01:54.813Z,66.1
2019-05-03T11:02:56.320Z,66.0
2019-05-03T11:03:57.781Z,66.4
2019-05-03T11:04:59.288Z,66.6
2019-05-03T11:06:00.791Z,66.0
2019-05-03T11:07:02.276Z,64.9
2019-05-03T11:08:05.027Z,66.4
2019-05-03T11:09:05.641Z,67.5
2019-05-03T11:10:06.683Z,65.4
2019-05-03T11:11:08.169Z,64.1
2019-05-03T11:12:09.706Z,62.6
2019-05-03T11:13:11.362Z,63.1
2019-05-03T11:14:14.766Z,64.2
2019-05-03T11:15:14.998Z,64.6
2019-05-03T11:16:15.861Z,65.0
2019-05-03T11:17:17.415Z,65.0
2019-05-03T11:18:18.854Z,64.4
2019-05-03T11:19:20.274Z,63.5
2019-05-03T11:20:28.417Z,65.5
2019-05-03T11:21:30.313Z,66.2
2019-05-03T11:22:25.206Z,64.1
2019-05-03T11:23:26.160Z,61.6
2019-05-03T11:24:27.690Z,61.6
2019-05-03T11:25:29.155Z,62.5
2019-05-03T11:26:30.667Z,64.0
2019-05-03T11:27:32.081Z,60.7
2019-05-03T11:28:35.237Z,61.0
2019-05-03T11:29:35.614Z,60.2
2019-05-03T11:30:36.595Z,58.6
2019-05-03T11:31:38.141Z,56.8
2019-05-03T11:32:39.640Z,58.6
2019-05-03T11:33:41.088Z,60.5
2019-05-03T11:34:44.792Z,60.8
2019-05-03T11:35:44.663Z,57.3
2019-05-03T11:36:45.518Z,57.0
2019-05-03T11:37:47.059Z,55.7
2019-05-03T11:38:48.539Z,55.1
2019-05-03T11:39:50.032Z,58.2
2019-05-03T11:40:51.486Z,58.6
2019-05-03T11:41:52.948Z,55.2
2019-05-03T11:42:55.382Z,55.1
2019-05-03T11:43:55.796Z,55.0
2019-05-03T11:44:57.224Z,54.2
2019-05-03T11:45:58.743Z,53.5
2019-05-03T11:47:00.146Z,52.3
2019-05-03T11:48:01.586Z,52.9
2019-05-03T11:49:03.083Z,53.1
2019-05-03T11:50:04.527Z,53.9
2019-05-03T11:51:05.883Z,53.5
2019-05-03T11:52:07.379Z,50.8
2019-05-03T11:53:08.880Z,51.9
2019-05-03T11:54:10.356Z,52.0
2019-05-03T11:55:12.250Z,52.6
2019-05-03T11:56:14.690Z,53.8
2019-05-03T11:57:15.765Z,53.4
2019-05-03T11:58:15.983Z,54.1
2019-05-03T11:59:17.417Z,54.0
2019-05-03T12:00:18.926Z,53.1
2019-05-03T12:01:20.651Z,53.4
2019-05-03T12:02:21.997Z,53.4
2019-05-03T12:03:24.996Z,52.4
2019-05-03T12:04:25.914Z,53.2
2019-05-03T12:05:27.698Z,54.2
2019-05-03T12:06:30.600Z,53.6
2019-05-03T12:07:38.829Z,54.3
2019-05-03T12:08:36.309Z,54.4
2019-05-03T12:09:37.995Z,53.8
2019-05-03T12:10:52.202Z,54.6
2019-05-03T12:11:41.643Z,54.0
2019-05-03T12:12:44.552Z,54.2
2019-05-03T12:13:45.901Z,55.0
2019-05-03T12:14:48.697Z,54.5
2019-05-03T12:15:50.323Z,54.0
2019-05-03T12:17:14.447Z,55.2
2019-05-03T12:17:59.191Z,54.6
2019-05-03T12:19:12.736Z,54.6
2019-05-03T12:20:02.943Z,54.7
2019-05-03T12:21:05.217Z,55.8
2019-05-03T12:22:07.170Z,55.7
2019-05-03T12:23:09.350Z,54.2
2019-05-03T12:24:11.111Z,53.6
2019-05-03T12:25:13.907Z,54.3
2019-05-03T12:26:17.010Z,54.7
2019-05-03T12:27:16.827Z,53.5
2019-05-03T12:28:19.099Z,53.6
2019-05-03T12:29:20.687Z,54.0
2019-05-03T12:30:24.833Z,54.1
2019-05-03T12:31:33.375Z,53.9
2019-05-03T12:32:25.088Z,53.6
2019-05-03T12:33:26.488Z,53.5
2019-05-03T12:34:27.931Z,51.5
2019-05-03T12:35:29.653Z,50.4
2019-05-03T12:36:31.124Z,49.9
2019-05-03T12:37:32.597Z,52.2
2019-05-03T12:38:34.915Z,53.4
2019-05-03T12:39:35.944Z,52.4
2019-05-03T12:40:37.611Z,51.2
2019-05-03T12:41:39.120Z,52.0
2019-05-03T12:42:40.560Z,52.3
2019-05-03T12:43:42.078Z,52.4
2019-05-03T12:44:45.883Z,52.8
2019-05-03T12:45:45.045Z,54.0
2019-05-03T12:46:49.505Z,52.8
2019-05-03T12:47:50.998Z,52.1
2019-05-03T12:48:52.434Z,52.5
2019-05-03T12:49:55.747Z,53.4
2019-05-03T12:50:55.850Z,52.4
2019-05-03T12:51:56.826Z,53.5
2019-05-03T12:52:58.277Z,52.2
2019-05-03T12:53:59.728Z,53.4
2019-05-03T12:55:01.365Z,54.1
2019-05-03T12:56:09.666Z,55.0
2019-05-03T12:57:05.070Z,54.8
2019-05-03T12:58:06.356Z,52.1
2019-05-03T12:59:06.985Z,49.5
2019-05-03T13:00:10.767Z,49.7
2019-05-03T13:01:13.089Z,49.8
2019-05-03T13:02:15.530Z,50.9
2019-05-03T13:03:17.106Z,50.0
2019-05-03T13:04:19.231Z,50.5
2019-05-03T13:05:21.525Z,49.7
2019-05-03T13:06:22.955Z,48.7
2019-05-03T13:07:24.547Z,48.0
2019-05-03T13:08:25.953Z,48.7
2019-05-03T13:09:27.447Z,50.8
2019-05-03T13:10:29.716Z,51.2
2019-05-03T13:11:33.965Z,52.5
2019-05-03T13:12:34.597Z,53.1
2019-05-03T13:13:35.924Z,53.6
2019-05-03T13:14:36.702Z,52.2
2019-05-03T13:15:38.466Z,53.7
2019-05-03T13:16:39.994Z,54.5
2019-05-03T13:17:41.439Z,51.9
2019-05-03T13:18:42.920Z,50.5
2019-05-03T13:19:46.137Z,51.0
2019-05-03T13:20:47.615Z,50.4
2019-05-03T13:21:49.131Z,50.5
2019-05-03T13:22:50.584Z,49.8
2019-05-03T13:23:52.078Z,50.5
2019-05-03T13:24:54.517Z,51.2
2019-05-03T13:25:55.049Z,52.2
2019-05-03T13:26:56.482Z,52.4
2019-05-03T13:27:57.976Z,53.5
2019-05-03T13:28:59.816Z,54.4
2019-05-03T13:30:01.142Z,53.1
2019-05-03T13:31:02.734Z,52.8
2019-05-03T13:32:05.623Z,53.9
2019-05-03T13:33:06.942Z,54.2
2019-05-03T13:34:09.146Z,54.3
2019-05-03T13:35:10.657Z,53.5
2019-05-03T13:36:12.184Z,54.0
2019-05-03T13:37:15.051Z,54.6
2019-05-03T13:38:15.219Z,54.9
2019-05-03T13:39:16.721Z,54.7
2019-05-03T13:40:18.229Z,55.2
2019-05-03T13:41:19.798Z,55.8
2019-05-03T13:42:21.228Z,55.8
2019-05-03T13:43:22.750Z,54.7
2019-05-03T13:44:26.435Z,54.6
2019-05-03T13:45:28.019Z,53.9
2019-05-03T13:46:30.418Z,54.2
2019-05-03T13:47:32.531Z,54.2